Belvidere, New Jersey
Current Conditions -  °F | °C
As of 2:51 PM on Friday 19 Dec 2014 (Local Time) from KABE Reporting Station
Few Clouds Few Clouds  
Wind Chill: 30°   Ceiling: Unl
Heat Index: 38°   Visibility: 10mi
Dew Point: 21°   Wind: 13mph
Humidity: 51%   Direction: 340°NNW
Pressure: 30.09"   Gusts: 18mph
Location:  40.83°N, 75.08°W
Report Text: KABE 191951Z 34011G16KT 10SM FEW039 03/M06 A3009 RMK AO2 SLP191 T00331061
Loading
Personal Weather Stations






























Interactive Weather Map New forecast layout! Learn more

10-Day Weather Forecast

Advertisements
Track Severe Weather on mobile